TimeADT,TemperatureF,Dew PointF,Humidity,Sea Level PressureIn,VisibilityMPH,Wind Direction,Wind SpeedMPH,Gust SpeedMPH,PrecipitationIn,Events,Conditions,WindDirDegrees,DateUTC
12:00 AM,43.2,39.2,86,30.20,-9999.0,West,2.3,-,N/A,,Unknown,280,2013-10-11 03:00:00
1:00 AM,42.6,39.0,87,30.18,-9999.0,WNW,2.3,-,N/A,,Unknown,300,2013-10-11 04:00:00
2:00 AM,42.4,39.6,90,30.18,-9999.0,SW,2.3,-,N/A,,Unknown,220,2013-10-11 05:00:00
3:00 AM,42,40,88,30.17,,WSW,2.3,,,,,240,2013-10-11 06:00:00
3:00 AM,42.1,39.6,91,30.17,-9999.0,WSW,2.3,-,N/A,,Unknown,240,2013-10-11 06:00:00
4:00 AM,41.2,38.7,91,30.15,-9999.0,WNW,2.3,-,N/A,,Unknown,290,2013-10-11 07:00:00
5:00 AM,41.0,38.7,91,30.15,-9999.0,West,2.3,-,N/A,,Unknown,260,2013-10-11 08:00:00
6:00 AM,38.8,36.9,93,30.15,-9999.0,WNW,2.3,-,N/A,,Unknown,290,2013-10-11 09:00:00
7:00 AM,38.5,36.5,93,30.16,-9999.0,WNW,1.2,-,N/A,,Unknown,300,2013-10-11 10:00:00
8:00 AM,37.2,35.8,95,30.16,-9999.0,WNW,2.3,-,N/A,,Unknown,290,2013-10-11 11:00:00
9:00 AM,44,42,92,30.15,,Calm,Calm,,,,,,2013-10-11 12:00:00
9:00 AM,43.5,42.4,96,30.15,-9999.0,Calm,Calm,-,N/A,,Unknown,0,2013-10-11 12:00:00
10:00 AM,53.1,47.1,80,30.14,-9999.0,WNW,1.2,-,N/A,,Unknown,290,2013-10-11 13:00:00
11:00 AM,61.0,46.9,60,30.14,-9999.0,NNE,2.3,-,N/A,,Unknown,30,2013-10-11 14:00:00
12:00 PM,65.1,46.0,50,30.13,-9999.0,ENE,2.3,-,N/A,,Unknown,60,2013-10-11 15:00:00
1:00 PM,67.1,47.8,50,30.11,-9999.0,South,2.3,-,N/A,,Unknown,180,2013-10-11 16:00:00
2:00 PM,70.2,51.1,51,30.08,-9999.0,SSW,3.5,-,N/A,,Unknown,200,2013-10-11 17:00:00
3:00 PM,72,49,33,30.07,,NW,1.2,,,,,310,2013-10-11 18:00:00
3:00 PM,72.3,48.7,43,30.07,-9999.0,NW,1.2,-,N/A,,Unknown,310,2013-10-11 18:00:00
4:00 PM,73.8,49.5,42,30.06,-9999.0,North,4.6,-,N/A,,Unknown,360,2013-10-11 19:00:00
5:00 PM,71.4,51.8,50,30.07,-9999.0,North,4.6,-,N/A,,Unknown,350,2013-10-11 20:00:00
6:00 PM,66.6,51.1,57,30.09,-9999.0,NNW,4.6,-,N/A,,Unknown,340,2013-10-11 21:00:00
7:00 PM,61.5,51.8,70,30.11,-9999.0,North,3.5,-,N/A,,Unknown,350,2013-10-11 22:00:00
8:00 PM,58.5,52.0,79,30.13,-9999.0,North,4.6,-,N/A,,Unknown,360,2013-10-11 23:00:00
9:00 PM,57,52,77,30.15,,North,5.8,,,,,0,2013-10-12 00:00:00
9:00 PM,57.2,51.8,82,30.15,-9999.0,North,5.8,-,N/A,,Unknown,360,2013-10-12 00:00:00
10:00 PM,55.6,50.7,84,30.15,-9999.0,North,5.8,-,N/A,,Unknown,10,2013-10-12 01:00:00
11:00 PM,54.1,50.4,87,30.16,-9999.0,NNE,4.6,-,N/A,,Unknown,20,2013-10-12 02:00:00